Time;durP1;ratioP1;P1;durP2;ratioP2;P2;SDS_P1;SDS_P2;PMS_P1;PMS_P2;Temp;Humidity;BMP_temperature;BMP_pressure;BME280_temperature;BME280_humidity;BME280_pressure;Samples;Min_cycle;Max_cycle;Signal;HPM_P1;HPM_P2
2022/05/12 00:01:50;;;;;;;23.33;3.35;;;;;;;;;;5054808;28;20024;-68
2022/05/12 00:04:16;;;;;;;24.42;4.18;;;;;;;;;;5055218;28;20028;-68
2022/05/12 00:06:42;;;;;;;30.85;4.05;;;;;;;;;;5054634;28;20025;-68
2022/05/12 00:09:08;;;;;;;17.48;3.05;;;;;;;;;;5055181;28;20033;-68
2022/05/12 00:11:34;;;;;;;22.95;3.25;;;;;;;;;;5054397;28;20104;-68
2022/05/12 00:14:01;;;;;;;28.92;3.35;;;;;;;;;;5054865;28;20033;-68
2022/05/12 00:16:27;;;;;;;14.43;3.00;;;;;;;;;;5053839;28;20481;-68
2022/05/12 00:18:53;;;;;;;27.63;3.55;;;;;;;;;;5054147;28;20029;-68
2022/05/12 00:21:19;;;;;;;12.93;3.03;;;;;;;;;;5054250;28;20063;-68
2022/05/12 00:23:56;;;;;;;17.08;2.95;;;;;;;;;;5054256;28;20543;-68
2022/05/12 00:26:26;;;;;;;19.27;3.53;;;;;;;;;;5054451;28;20556;-68
2022/05/12 00:28:52;;;;;;;16.95;3.30;;;;;;;;;;5053877;28;20040;-68
2022/05/12 00:31:19;;;;;;;17.45;3.13;;;;;;;;;;5054403;28;20029;-68
2022/05/12 00:33:45;;;;;;;16.45;2.90;;;;;;;;;;5053592;28;20033;-68
2022/05/12 00:36:12;;;;;;;18.70;3.08;;;;;;;;;;5054165;28;20059;-68
2022/05/12 00:38:38;;;;;;;14.82;2.50;;;;;;;;;;5053912;28;20408;-68
2022/05/12 00:41:04;;;;;;;19.48;3.72;;;;;;;;;;5054339;28;20070;-68
2022/05/12 00:43:33;;;;;;;24.88;3.65;;;;;;;;;;5054187;28;20028;-68
2022/05/12 00:45:59;;;;;;;16.27;2.88;;;;;;;;;;5060160;28;20440;-68
2022/05/12 00:48:26;;;;;;;22.17;2.90;;;;;;;;;;5052721;28;20471;-68
2022/05/12 00:50:52;;;;;;;19.20;3.97;;;;;;;;;;5053815;28;20065;-68
2022/05/12 00:53:19;;;;;;;28.02;4.28;;;;;;;;;;5054133;28;20017;-68
2022/05/12 00:55:45;;;;;;;18.40;2.53;;;;;;;;;;5053662;28;20537;-68
2022/05/12 00:58:15;;;;;;;18.75;3.55;;;;;;;;;;5053814;28;20043;-68
2022/05/12 01:00:42;;;;;;;20.15;3.83;;;;;;;;;;5053980;28;20059;-68
2022/05/12 01:03:09;;;;;;;20.88;3.28;;;;;;;;;;5053811;28;20033;-68
2022/05/12 01:05:36;;;;;;;20.73;3.58;;;;;;;;;;5053913;28;20036;-68
2022/05/12 01:08:02;;;;;;;13.48;3.00;;;;;;;;;;5053125;28;20040;-67
2022/05/12 01:10:29;;;;;;;17.25;2.75;;;;;;;;;;5054013;28;20032;-67
2022/05/12 01:12:56;;;;;;;22.90;3.58;;;;;;;;;;5053646;28;20040;-68
2022/05/12 01:15:24;;;;;;;19.25;2.90;;;;;;;;;;5053819;28;20032;-68
2022/05/12 01:17:50;;;;;;;19.02;3.63;;;;;;;;;;5052868;28;20396;-68
2022/05/12 01:20:17;;;;;;;19.08;3.15;;;;;;;;;;5053723;28;20370;-68
2022/05/12 01:22:49;;;;;;;20.33;3.25;;;;;;;;;;5053457;28;20024;-68
2022/05/12 01:25:17;;;;;;;16.73;3.38;;;;;;;;;;5053688;28;20040;-68
2022/05/12 01:27:44;;;;;;;20.52;2.97;;;;;;;;;;5053527;28;20025;-68
2022/05/12 01:30:12;;;;;;;13.30;3.25;;;;;;;;;;5053418;28;20021;-68
2022/05/12 01:32:38;;;;;;;11.57;2.45;;;;;;;;;;5053312;28;20078;-68
2022/05/12 01:35:04;;;;;;;11.02;2.65;;;;;;;;;;5053380;28;20033;-68
2022/05/12 01:37:31;;;;;;;17.17;2.55;;;;;;;;;;5053225;28;20017;-68
2022/05/12 01:39:57;;;;;;;14.68;2.40;;;;;;;;;;5052876;28;20025;-68
2022/05/12 01:42:24;;;;;;;20.77;3.38;;;;;;;;;;5053263;28;20051;-68
2022/05/12 01:44:51;;;;;;;14.57;2.40;;;;;;;;;;5061411;28;20054;-68
2022/05/12 01:47:17;;;;;;;13.65;3.13;;;;;;;;;;5059937;28;20032;-68
2022/05/12 01:49:43;;;;;;;16.85;2.17;;;;;;;;;;5053035;28;20064;-68
2022/05/12 01:52:12;;;;;;;17.73;2.45;;;;;;;;;;5052927;28;20047;-68
2022/05/12 01:54:39;;;;;;;9.55;2.25;;;;;;;;;;5053097;28;20457;-68
2022/05/12 01:57:05;;;;;;;11.75;2.70;;;;;;;;;;5052596;28;20148;-68
2022/05/12 01:59:31;;;;;;;10.57;2.25;;;;;;;;;;5053193;28;20028;-68
2022/05/12 02:01:57;;;;;;;11.25;2.45;;;;;;;;;;5052115;28;20460;-67
2022/05/12 02:04:23;;;;;;;11.35;2.35;;;;;;;;;;5052999;28;20021;-68
2022/05/12 02:06:49;;;;;;;9.63;2.58;;;;;;;;;;5052859;28;20113;-68
2022/05/12 02:09:16;;;;;;;11.77;3.70;;;;;;;;;;5052788;28;20485;-68
2022/05/12 02:11:42;;;;;;;7.60;2.72;;;;;;;;;;5052723;28;20112;-68
2022/05/12 02:14:09;;;;;;;13.48;2.50;;;;;;;;;;5052210;28;20021;-68
2022/05/12 02:16:35;;;;;;;7.70;2.97;;;;;;;;;;5033567;28;20009;-68
2022/05/12 02:19:03;;;;;;;11.95;2.03;;;;;;;;;;5041598;28;20037;-67
2022/05/12 02:21:29;;;;;;;11.20;2.78;;;;;;;;;;5038951;28;20135;-68
2022/05/12 02:23:55;;;;;;;9.55;2.45;;;;;;;;;;5049705;28;20381;-68
2022/05/12 02:26:21;;;;;;;8.23;2.20;;;;;;;;;;5052411;28;20053;-68
2022/05/12 02:28:47;;;;;;;13.93;2.22;;;;;;;;;;5052326;28;20048;-67
2022/05/12 02:31:13;;;;;;;7.38;1.92;;;;;;;;;;5051991;28;20108;-68
2022/05/12 02:33:40;;;;;;;8.45;1.80;;;;;;;;;;5052486;28;20415;-68
2022/05/12 02:36:06;;;;;;;12.30;2.22;;;;;;;;;;5051750;28;20032;-68
2022/05/12 02:38:32;;;;;;;11.73;2.83;;;;;;;;;;5052165;28;20029;-68
2022/05/12 02:40:58;;;;;;;10.63;2.55;;;;;;;;;;5052188;28;20166;-67
2022/05/12 02:43:24;;;;;;;10.48;2.58;;;;;;;;;;5052110;28;20393;-67
2022/05/12 02:46:02;;;;;;;13.43;2.17;;;;;;;;;;5052264;28;20455;-68
2022/05/12 02:48:35;;;;;;;9.00;1.98;;;;;;;;;;5049451;28;20037;-68
2022/05/12 02:51:02;;;;;;;6.82;2.15;;;;;;;;;;5051815;28;20044;-67
2022/05/12 02:53:28;;;;;;;8.52;1.90;;;;;;;;;;5052539;28;20069;-68
2022/05/12 02:55:55;;;;;;;12.52;2.15;;;;;;;;;;5051632;28;20489;-68
2022/05/12 02:58:21;;;;;;;9.27;2.10;;;;;;;;;;5051981;28;20434;-68
2022/05/12 03:00:50;;;;;;;8.45;1.92;;;;;;;;;;5051525;28;20029;-68
2022/05/12 03:03:16;;;;;;;7.20;1.70;;;;;;;;;;5051558;28;20021;-67
2022/05/12 03:05:42;;;;;;;16.73;2.20;;;;;;;;;;5051862;28;20136;-68
2022/05/12 03:08:09;;;;;;;3.97;1.80;;;;;;;;;;5051201;28;20029;-68
2022/05/12 03:10:35;;;;;;;6.57;1.83;;;;;;;;;;5051894;28;20094;-68
2022/05/12 03:13:02;;;;;;;9.63;1.90;;;;;;;;;;5051391;28;20060;-68
2022/05/12 03:15:28;;;;;;;8.68;2.13;;;;;;;;;;5051535;28;20553;-67
2022/05/12 03:17:54;;;;;;;10.45;3.13;;;;;;;;;;5051325;28;20024;-67
2022/05/12 03:20:22;;;;;;;12.20;3.30;;;;;;;;;;5051350;28;20109;-67
2022/05/12 03:22:49;;;;;;;9.38;2.40;;;;;;;;;;5051801;28;20067;-67
2022/05/12 03:25:16;;;;;;;13.82;2.00;;;;;;;;;;5052705;28;20136;-67
2022/05/12 03:27:42;;;;;;;8.35;1.92;;;;;;;;;;5056656;28;20029;-67
2022/05/12 03:30:10;;;;;;;8.57;1.98;;;;;;;;;;5052646;28;20032;-67
2022/05/12 03:32:36;;;;;;;9.82;2.33;;;;;;;;;;5057348;28;20112;-68
2022/05/12 03:35:03;;;;;;;12.07;2.30;;;;;;;;;;5055585;28;20037;-67
2022/05/12 03:37:29;;;;;;;11.75;2.63;;;;;;;;;;5055088;28;20029;-67
2022/05/12 03:39:55;;;;;;;9.02;2.25;;;;;;;;;;5055215;28;20370;-67
2022/05/12 03:42:21;;;;;;;10.02;2.58;;;;;;;;;;5054302;28;20049;-67
2022/05/12 03:44:49;;;;;;;12.38;3.17;;;;;;;;;;5056961;28;20029;-67
2022/05/12 03:47:20;;;;;;;10.35;2.45;;;;;;;;;;5054243;28;20043;-67
2022/05/12 03:49:50;;;;;;;10.90;2.08;;;;;;;;;;5055102;28;20036;-67
2022/05/12 03:52:17;;;;;;;13.75;2.85;;;;;;;;;;5039173;28;20037;-67
2022/05/12 03:54:43;;;;;;;14.48;2.70;;;;;;;;;;5055518;28;20074;-67
2022/05/12 03:57:11;;;;;;;7.50;2.42;;;;;;;;;;5054626;28;20106;-67
2022/05/12 03:59:40;;;;;;;7.63;2.63;;;;;;;;;;5055146;28;20029;-67
2022/05/12 04:02:07;;;;;;;16.13;2.83;;;;;;;;;;5054475;28;20021;-68
2022/05/12 04:04:33;;;;;;;9.52;2.05;;;;;;;;;;5055200;28;20029;-68
2022/05/12 04:07:00;;;;;;;15.98;3.42;;;;;;;;;;5055108;28;20542;-66
2022/05/12 04:09:27;;;;;;;8.57;2.00;;;;;;;;;;5055402;28;20024;-67
2022/05/12 04:11:53;;;;;;;12.27;2.38;;;;;;;;;;5055155;28;20524;-66
2022/05/12 04:14:19;;;;;;;7.40;2.22;;;;;;;;;;5054608;28;20028;-67
2022/05/12 04:16:45;;;;;;;12.98;2.63;;;;;;;;;;5053410;28;20060;-67
2022/05/12 04:19:12;;;;;;;10.85;2.20;;;;;;;;;;5054243;28;20033;-67
2022/05/12 04:21:38;;;;;;;11.90;2.10;;;;;;;;;;5054677;28;20033;-67
2022/05/12 04:24:05;;;;;;;6.78;2.10;;;;;;;;;;5054302;28;20028;-67
2022/05/12 04:26:32;;;;;;;13.57;2.17;;;;;;;;;;5053712;28;20021;-67
2022/05/12 04:28:58;;;;;;;11.38;2.38;;;;;;;;;;5054626;28;20425;-67
2022/05/12 04:31:25;;;;;;;9.98;2.38;;;;;;;;;;5068032;28;20059;-67
2022/05/12 04:36:36;;;;;;;8.10;2.03;;;;;;;;;;5074759;28;20507;-67
2022/05/12 04:39:03;;;;;;;10.25;2.13;;;;;;;;;;5074722;28;20128;-67
2022/05/12 04:41:30;;;;;;;17.92;4.65;;;;;;;;;;5073129;28;20028;-67
2022/05/12 04:43:56;;;;;;;6.97;2.15;;;;;;;;;;5074528;28;20423;-67
2022/05/12 04:46:24;;;;;;;8.65;2.70;;;;;;;;;;5074439;28;20484;-67
2022/05/12 04:48:50;;;;;;;7.78;2.40;;;;;;;;;;5074562;28;20442;-67
2022/05/12 04:51:16;;;;;;;10.73;2.45;;;;;;;;;;5074338;28;20035;-67
2022/05/12 04:53:42;;;;;;;6.82;2.00;;;;;;;;;;5074584;28;20024;-67
2022/05/12 04:56:08;;;;;;;9.35;2.17;;;;;;;;;;5073771;28;20105;-67
2022/05/12 04:58:35;;;;;;;10.85;2.22;;;;;;;;;;5074218;28;20032;-67
2022/05/12 05:01:01;;;;;;;7.93;2.08;;;;;;;;;;5074236;28;20021;-67
2022/05/12 05:03:27;;;;;;;8.82;2.45;;;;;;;;;;5073799;28;20020;-67
2022/05/12 05:05:53;;;;;;;8.70;2.20;;;;;;;;;;5045549;28;20028;-67
2022/05/12 05:08:20;;;;;;;10.77;3.58;;;;;;;;;;5050671;28;20397;-66
2022/05/12 05:10:46;;;;;;;7.45;2.20;;;;;;;;;;5049113;28;20025;-67
2022/05/12 05:13:13;;;;;;;5.57;2.42;;;;;;;;;;5051105;28;20021;-67
2022/05/12 05:15:39;;;;;;;15.20;2.80;;;;;;;;;;5053372;28;20036;-67
2022/05/12 05:18:06;;;;;;;5.70;2.20;;;;;;;;;;5053809;28;20029;-67
2022/05/12 05:20:32;;;;;;;13.82;2.40;;;;;;;;;;5053625;28;20040;-67
2022/05/12 05:22:58;;;;;;;12.93;2.78;;;;;;;;;;5054102;28;20373;-67
2022/05/12 05:25:25;;;;;;;9.65;2.75;;;;;;;;;;5051736;28;20494;-67
2022/05/12 05:27:52;;;;;;;13.13;2.97;;;;;;;;;;5051556;28;20031;-67
2022/05/12 05:30:21;;;;;;;13.35;2.70;;;;;;;;;;5052846;28;20033;-66
2022/05/12 05:32:47;;;;;;;12.73;2.70;;;;;;;;;;5053857;28;20032;-66
2022/05/12 05:35:13;;;;;;;8.15;2.42;;;;;;;;;;5051327;28;20452;-67
2022/05/12 05:37:40;;;;;;;11.80;2.80;;;;;;;;;;5033342;28;20382;-67
2022/05/12 05:40:06;;;;;;;8.85;2.55;;;;;;;;;;5033020;28;20553;-66
2022/05/12 05:42:33;;;;;;;14.38;2.72;;;;;;;;;;5047104;28;20040;-67
2022/05/12 05:44:59;;;;;;;12.98;2.85;;;;;;;;;;5053808;28;20059;-67
2022/05/12 05:47:25;;;;;;;15.85;3.33;;;;;;;;;;5050794;28;20032;-67
2022/05/12 05:49:51;;;;;;;12.85;4.28;;;;;;;;;;5051717;28;20036;-67
2022/05/12 05:55:03;;;;;;;14.20;3.47;;;;;;;;;;5051987;28;20071;-67
2022/05/12 05:57:30;;;;;;;10.98;3.15;;;;;;;;;;5051898;28;20413;-66
2022/05/12 05:59:57;;;;;;;16.75;3.70;;;;;;;;;;5045364;28;20040;-66
2022/05/12 06:02:23;;;;;;;20.42;5.43;;;;;;;;;;5032323;28;20057;-66
2022/05/12 06:04:50;;;;;;;17.73;4.65;;;;;;;;;;5036297;28;20079;-66
2022/05/12 06:07:16;;;;;;;13.10;3.63;;;;;;;;;;5047613;28;20032;-66
2022/05/12 06:09:43;;;;;;;21.20;4.03;;;;;;;;;;5032228;28;20482;-66
2022/05/12 06:12:09;;;;;;;21.92;4.47;;;;;;;;;;5031876;28;20101;-66
2022/05/12 06:14:35;;;;;;;14.80;4.15;;;;;;;;;;5031745;28;20030;-66
2022/05/12 06:17:01;;;;;;;17.10;4.15;;;;;;;;;;5051594;28;20025;-66
2022/05/12 06:19:28;;;;;;;14.63;3.95;;;;;;;;;;5050546;28;20071;-66
2022/05/12 06:21:54;;;;;;;16.30;4.82;;;;;;;;;;5051502;28;20443;-66
2022/05/12 06:24:20;;;;;;;16.75;4.15;;;;;;;;;;5051679;28;20115;-66
2022/05/12 06:26:46;;;;;;;13.32;3.90;;;;;;;;;;5051773;28;20043;-65
2022/05/12 06:29:12;;;;;;;27.63;4.47;;;;;;;;;;5051379;28;20044;-65
2022/05/12 06:31:41;;;;;;;15.75;4.22;;;;;;;;;;5051495;28;20033;-64
2022/05/12 06:34:07;;;;;;;18.92;3.80;;;;;;;;;;5052785;28;20429;-65
2022/05/12 06:36:34;;;;;;;15.40;3.70;;;;;;;;;;5051941;28;20025;-65
2022/05/12 06:39:00;;;;;;;20.45;4.10;;;;;;;;;;5052227;28;20029;-65
2022/05/12 06:41:26;;;;;;;16.00;4.25;;;;;;;;;;5052283;28;20021;-65
2022/05/12 06:43:53;;;;;;;19.27;3.45;;;;;;;;;;5052753;28;20453;-65
2022/05/12 06:46:21;;;;;;;14.10;3.00;;;;;;;;;;5052231;28;20640;-63
2022/05/12 06:48:48;;;;;;;21.02;4.80;;;;;;;;;;5051882;28;20028;-62
2022/05/12 06:51:17;;;;;;;17.52;3.97;;;;;;;;;;5052105;28;20033;-62
2022/05/12 06:53:44;;;;;;;14.93;3.08;;;;;;;;;;5051703;28;20029;-62
2022/05/12 06:56:10;;;;;;;24.13;3.95;;;;;;;;;;5051863;28;20515;-63
2022/05/12 06:58:37;;;;;;;20.75;3.75;;;;;;;;;;5051811;28;20087;-62
2022/05/12 07:01:04;;;;;;;12.60;3.50;;;;;;;;;;5052322;28;20022;-65
2022/05/12 07:03:30;;;;;;;13.95;3.90;;;;;;;;;;5051888;28;20074;-65
2022/05/12 07:05:57;;;;;;;19.10;3.30;;;;;;;;;;5051363;28;20021;-65
2022/05/12 07:08:23;;;;;;;17.48;3.35;;;;;;;;;;5052018;28;20123;-65
2022/05/12 07:10:49;;;;;;;18.48;2.83;;;;;;;;;;5051741;28;20024;-65
2022/05/12 07:13:20;;;;;;;25.05;3.75;;;;;;;;;;5052239;28;20036;-65
2022/05/12 07:15:48;;;;;;;19.40;3.40;;;;;;;;;;5051891;28;20052;-65
2022/05/12 07:18:14;;;;;;;24.83;3.75;;;;;;;;;;5051900;28;20037;-65
2022/05/12 07:28:55;;;;;;;20.40;3.53;;;;;;;;;;5051609;28;20033;-65
2022/05/12 07:31:22;;;;;;;21.02;3.47;;;;;;;;;;5051792;28;20152;-65
2022/05/12 07:33:49;;;;;;;18.98;3.72;;;;;;;;;;5051720;28;20055;-65
2022/05/12 07:36:25;;;;;;;23.58;2.97;;;;;;;;;;5052771;28;20017;-65
2022/05/12 07:38:52;;;;;;;23.25;2.97;;;;;;;;;;5071450;28;20119;-65
2022/05/12 07:41:19;;;;;;;19.27;4.05;;;;;;;;;;5071748;28;20028;-65
2022/05/12 07:43:45;;;;;;;13.45;3.08;;;;;;;;;;5071711;28;20495;-65
2022/05/12 07:46:12;;;;;;;20.38;3.83;;;;;;;;;;5071788;28;20031;-65
2022/05/12 07:48:41;;;;;;;17.05;3.17;;;;;;;;;;5071045;28;20032;-65
2022/05/12 07:51:08;;;;;;;17.35;3.35;;;;;;;;;;5072093;28;20128;-65
2022/05/12 07:53:34;;;;;;;14.70;2.92;;;;;;;;;;5071469;28;20033;-65
2022/05/12 07:56:00;;;;;;;25.20;3.03;;;;;;;;;;5071522;28;20040;-65
2022/05/12 07:58:27;;;;;;;17.05;2.10;;;;;;;;;;5071680;28;20051;-65
2022/05/12 08:00:53;;;;;;;15.13;3.05;;;;;;;;;;5071323;28;20444;-65
2022/05/12 08:03:20;;;;;;;18.00;3.00;;;;;;;;;;5071314;28;20025;-65
2022/05/12 08:05:46;;;;;;;13.27;2.47;;;;;;;;;;5071167;28;20025;-65
2022/05/12 08:08:12;;;;;;;17.75;3.58;;;;;;;;;;5071494;28;20028;-65
2022/05/12 08:10:39;;;;;;;22.25;3.13;;;;;;;;;;5071313;28;20028;-65
2022/05/12 08:13:06;;;;;;;12.85;2.45;;;;;;;;;;5071578;28;20032;-65
2022/05/12 08:15:33;;;;;;;16.88;2.33;;;;;;;;;;5071488;28;20523;-65
2022/05/12 08:17:59;;;;;;;19.10;3.20;;;;;;;;;;5073576;28;20028;-65
2022/05/12 08:20:26;;;;;;;13.88;2.55;;;;;;;;;;5075070;28;20025;-65
2022/05/12 08:22:52;;;;;;;16.73;2.85;;;;;;;;;;5074646;28;20047;-65
2022/05/12 08:25:18;;;;;;;14.00;2.47;;;;;;;;;;5075179;28;20055;-65
2022/05/12 08:27:44;;;;;;;11.15;2.45;;;;;;;;;;5074759;28;20037;-65
2022/05/12 08:30:12;;;;;;;14.02;2.35;;;;;;;;;;5074780;28;20035;-65
2022/05/12 08:32:39;;;;;;;18.30;2.38;;;;;;;;;;5074218;28;20032;-65
2022/05/12 08:35:05;;;;;;;13.95;2.17;;;;;;;;;;5075050;28;20028;-65
2022/05/12 08:37:31;;;;;;;11.43;3.30;;;;;;;;;;5074451;28;20032;-65
2022/05/12 08:39:58;;;;;;;18.02;2.53;;;;;;;;;;5074513;28;20032;-65
2022/05/12 08:42:29;;;;;;;13.27;2.30;;;;;;;;;;5074682;28;20029;-65
2022/05/12 08:44:57;;;;;;;9.50;2.13;;;;;;;;;;5074389;28;20385;-65
2022/05/12 08:47:28;;;;;;;12.90;2.78;;;;;;;;;;5074361;28;20070;-65
2022/05/12 08:49:54;;;;;;;17.80;2.72;;;;;;;;;;5074375;28;20055;-65
2022/05/12 08:52:44;;;;;;;13.50;2.00;;;;;;;;;;5074325;28;20032;-65
2022/05/12 08:55:10;;;;;;;15.77;2.92;;;;;;;;;;5074743;28;20086;-65
2022/05/12 08:57:43;;;;;;;18.58;3.85;;;;;;;;;;5074353;28;20491;-65
2022/05/12 09:00:15;;;;;;;16.75;2.42;;;;;;;;;;5074189;28;20059;-65
2022/05/12 09:02:41;;;;;;;14.13;2.08;;;;;;;;;;5073871;28;20397;-65
2022/05/12 09:05:11;;;;;;;18.73;3.85;;;;;;;;;;5074283;28;20391;-65
2022/05/12 09:07:38;;;;;;;19.95;2.08;;;;;;;;;;5073822;28;20041;-65
2022/05/12 09:10:07;;;;;;;12.80;2.25;;;;;;;;;;5074128;28;20017;-65
2022/05/12 09:12:42;;;;;;;10.98;1.55;;;;;;;;;;5074305;28;20405;-65
2022/05/12 09:15:12;;;;;;;10.93;2.50;;;;;;;;;;5074113;28;20028;-65
2022/05/12 09:17:38;;;;;;;13.75;2.10;;;;;;;;;;5073534;28;20104;-65
2022/05/12 09:20:07;;;;;;;15.43;2.03;;;;;;;;;;5074010;28;20469;-65
2022/05/12 09:22:33;;;;;;;13.35;2.58;;;;;;;;;;5073826;28;20017;-65
2022/05/12 09:24:59;;;;;;;15.60;3.88;;;;;;;;;;5073583;28;20120;-65
2022/05/12 09:27:32;;;;;;;16.08;2.10;;;;;;;;;;5073530;28;20550;-65
2022/05/12 09:29:58;;;;;;;;;;;;;;;;;;5073530;28;20081;-65
2022/05/12 09:32:30;;;;;;;10.95;1.92;;;;;;;;;;5073692;28;19966;-65
2022/05/12 09:34:56;;;;;;;;;;;;;;;;;;5073743;28;20043;-65
2022/05/12 09:37:27;;;;;;;12.48;1.75;;;;;;;;;;5073406;28;19904;-65
2022/05/12 09:39:54;;;;;;;9.43;1.85;;;;;;;;;;5073374;28;20063;-65
2022/05/12 09:42:29;;;;;;;11.55;1.90;;;;;;;;;;5073526;28;20104;-65
2022/05/12 09:44:58;;;;;;;12.02;2.10;;;;;;;;;;5072752;28;20058;-65
2022/05/12 09:47:25;;;;;;;9.05;2.28;;;;;;;;;;5073232;28;20023;-65
2022/05/12 09:50:15;;;;;;;8.18;1.92;;;;;;;;;;5073078;28;20029;-65
2022/05/12 09:52:39;;;;;;;18.02;2.78;;;;;;;;;;5073173;28;20036;-65
2022/05/12 09:55:08;;;;;;;13.13;2.22;;;;;;;;;;5073099;28;20101;-65
2022/05/12 09:57:35;;;;;;;13.35;1.55;;;;;;;;;;5073098;28;20397;-65
2022/05/12 10:00:03;;;;;;;10.65;1.95;;;;;;;;;;5072641;28;20044;-65
2022/05/12 10:08:10;;;;;;;10.82;1.98;;;;;;;;;;5072702;28;20040;-65
2022/05/12 10:10:36;;;;;;;8.27;1.60;;;;;;;;;;5073092;28;20077;-65
2022/05/12 10:13:21;;;;;;;10.82;1.48;;;;;;;;;;5072796;28;20037;-65
2022/05/12 10:15:48;;;;;;;12.50;2.20;;;;;;;;;;5072457;28;20048;-65
2022/05/12 10:18:15;;;;;;;8.85;1.48;;;;;;;;;;5072612;28;20024;-65
2022/05/12 10:20:42;;;;;;;9.35;1.83;;;;;;;;;;5072649;28;20036;-65
2022/05/12 10:23:11;;;;;;;8.68;1.80;;;;;;;;;;5072706;28;20081;-65
2022/05/12 10:25:47;;;;;;;16.60;2.08;;;;;;;;;;5072875;28;20032;-65
2022/05/12 10:28:28;;;;;;;16.73;2.55;;;;;;;;;;5072298;28;20109;-65
2022/05/12 10:31:13;;;;;;;12.43;2.35;;;;;;;;;;5072415;28;20032;-65
2022/05/12 10:33:57;;;;;;;7.22;2.10;;;;;;;;;;5072665;28;20170;-65
2022/05/12 10:36:42;;;;;;;10.20;1.83;;;;;;;;;;5065453;28;20033;-65
2022/05/12 10:39:14;;;;;;;16.70;1.60;;;;;;;;;;5051123;28;20055;-66
2022/05/12 10:41:51;;;;;;;10.13;2.50;;;;;;;;;;5052429;28;20060;-65
2022/05/12 10:44:20;;;;;;;8.43;2.25;;;;;;;;;;5052328;28;20381;-65
2022/05/12 10:47:02;;;;;;;12.93;2.78;;;;;;;;;;5051284;28;20062;-66
2022/05/12 10:49:29;;;;;;;8.70;1.73;;;;;;;;;;5045789;28;20017;-65
2022/05/12 10:52:01;;;;;;;7.28;1.75;;;;;;;;;;5057365;28;20159;-65
2022/05/12 10:54:27;;;;;;;7.10;1.75;;;;;;;;;;5051371;28;20095;-66
2022/05/12 10:56:53;;;;;;;13.60;1.77;;;;;;;;;;5051608;28;20455;-65
2022/05/12 10:59:24;;;;;;;8.18;1.90;;;;;;;;;;5052508;28;20049;-65
2022/05/12 11:01:55;;;;;;;8.00;1.75;;;;;;;;;;5050954;28;20021;-66
2022/05/12 11:04:27;;;;;;;7.32;1.85;;;;;;;;;;5052034;28;20480;-65
2022/05/12 11:06:59;;;;;;;11.18;1.63;;;;;;;;;;5051107;28;20059;-65
2022/05/12 11:09:28;;;;;;;8.00;1.40;;;;;;;;;;5050538;28;20119;-65
2022/05/12 11:11:55;;;;;;;5.90;1.30;;;;;;;;;;5058626;28;20041;-65
2022/05/12 11:14:22;;;;;;;6.15;1.30;;;;;;;;;;5039109;28;20388;-65
2022/05/12 11:16:50;;;;;;;8.82;1.90;;;;;;;;;;5047900;28;20100;-65
2022/05/12 11:19:23;;;;;;;9.30;1.63;;;;;;;;;;5044605;28;20021;-65
2022/05/12 11:21:50;;;;;;;6.15;1.50;;;;;;;;;;5043378;28;20477;-65
2022/05/12 11:24:25;;;;;;;8.07;1.85;;;;;;;;;;5043296;28;20104;-65
2022/05/12 11:27:14;;;;;;;6.82;1.40;;;;;;;;;;5034954;28;20025;-65
2022/05/12 11:29:51;;;;;;;7.60;1.10;;;;;;;;;;5043711;28;20029;-66
2022/05/12 11:32:35;;;;;;;6.85;1.33;;;;;;;;;;5050385;28;20017;-65
2022/05/12 11:35:22;;;;;;;10.90;1.67;;;;;;;;;;5051831;28;20472;-65
2022/05/12 11:37:50;;;;;;;8.02;1.35;;;;;;;;;;5052593;28;20037;-65
2022/05/12 11:40:35;;;;;;;8.70;1.42;;;;;;;;;;5041732;28;20060;-65
2022/05/12 11:45:48;;;;;;;6.68;1.33;;;;;;;;;;5071836;28;20036;-65
2022/05/12 11:48:20;;;;;;;5.75;1.25;;;;;;;;;;5071375;28;20026;-65
2022/05/12 11:50:48;;;;;;;5.85;1.77;;;;;;;;;;5072528;28;20016;-65
2022/05/12 11:53:27;;;;;;;9.20;1.55;;;;;;;;;;5075318;28;20036;-65
2022/05/12 11:56:12;;;;;;;7.78;1.17;;;;;;;;;;5075296;28;20569;-65
2022/05/12 11:58:43;;;;;;;9.07;1.58;;;;;;;;;;5075363;28;20571;-65
2022/05/12 12:01:11;;;;;;;11.43;1.17;;;;;;;;;;5075219;28;20020;-65
2022/05/12 12:03:46;;;;;;;7.30;1.75;;;;;;;;;;5075318;28;20100;-65
2022/05/12 12:06:32;;;;;;;6.22;1.40;;;;;;;;;;5075023;28;20400;-65
2022/05/12 12:09:18;;;;;;;7.05;1.65;;;;;;;;;;5075062;28;20071;-65
2022/05/12 12:11:45;;;;;;;8.70;1.20;;;;;;;;;;5075014;28;20054;-65
2022/05/12 12:14:32;;;;;;;7.75;1.73;;;;;;;;;;5074987;28;20070;-65
2022/05/12 12:17:10;;;;;;;4.35;0.90;;;;;;;;;;5074896;28;20044;-65
2022/05/12 12:19:49;;;;;;;6.82;1.20;;;;;;;;;;5074946;28;20044;-65
2022/05/12 12:22:19;;;;;;;7.55;1.58;;;;;;;;;;5074731;28;20028;-65
2022/05/12 12:25:09;;;;;;;3.13;0.82;;;;;;;;;;5074975;28;20535;-65
2022/05/12 12:27:35;;;;;;;4.90;0.98;;;;;;;;;;5032936;28;20055;-65
2022/05/12 12:30:20;;;;;;;7.85;1.33;;;;;;;;;;5032500;28;20040;-65
2022/05/12 12:32:50;;;;;;;6.30;0.95;;;;;;;;;;5032734;28;20048;-65
2022/05/12 12:35:26;;;;;;;7.22;1.30;;;;;;;;;;5032547;28;20120;-65
2022/05/12 12:37:53;;;;;;;5.45;1.20;;;;;;;;;;5018130;28;20041;-65
2022/05/12 12:40:28;;;;;;;3.70;0.95;;;;;;;;;;5012320;28;20069;-65
2022/05/12 12:42:54;;;;;;;6.18;1.00;;;;;;;;;;5012705;28;20038;-65
2022/05/12 12:45:21;;;;;;;5.53;1.20;;;;;;;;;;5012638;28;20109;-65
2022/05/12 12:47:47;;;;;;;6.45;1.02;;;;;;;;;;5012877;28;20038;-65
2022/05/12 12:50:22;;;;;;;5.22;1.08;;;;;;;;;;5012607;28;20037;-65
2022/05/12 12:52:50;;;;;;;5.03;1.67;;;;;;;;;;5012557;28;20042;-65
2022/05/12 12:58:03;;;;;;;4.65;1.20;;;;;;;;;;5012300;28;20474;-65
2022/05/12 13:00:33;;;;;;;10.70;1.60;;;;;;;;;;5012447;28;20044;-65
2022/05/12 13:03:01;;;;;;;9.88;1.67;;;;;;;;;;5006725;28;20042;-65
2022/05/12 13:05:27;;;;;;;4.03;1.23;;;;;;;;;;5046198;28;20068;-65
2022/05/12 13:07:55;;;;;;;7.00;0.95;;;;;;;;;;5054438;28;20444;-65
2022/05/12 13:10:21;;;;;;;9.85;1.30;;;;;;;;;;5054168;28;20545;-65
2022/05/12 13:12:58;;;;;;;12.10;1.70;;;;;;;;;;5054487;28;20045;-65
2022/05/12 13:15:25;;;;;;;9.52;1.50;;;;;;;;;;5053861;28;20487;-65
2022/05/12 13:17:55;;;;;;;7.65;1.40;;;;;;;;;;5054548;28;20112;-65
2022/05/12 13:20:24;;;;;;;10.00;1.83;;;;;;;;;;5054402;28;20025;-65
2022/05/12 13:23:00;;;;;;;14.02;1.88;;;;;;;;;;5052731;28;20091;-65
2022/05/12 13:25:29;;;;;;;17.42;1.92;;;;;;;;;;5053956;28;20078;-65
2022/05/12 13:27:55;;;;;;;9.45;1.50;;;;;;;;;;5054396;28;20401;-65
2022/05/12 13:30:27;;;;;;;5.85;1.38;;;;;;;;;;5054126;28;20033;-65
2022/05/12 13:32:54;;;;;;;6.45;1.40;;;;;;;;;;5054168;28;20115;-65
2022/05/12 13:35:22;;;;;;;9.77;1.42;;;;;;;;;;5053825;28;20163;-65
2022/05/12 13:37:50;;;;;;;6.75;1.60;;;;;;;;;;5053695;28;20021;-65
2022/05/12 13:40:35;;;;;;;5.88;1.58;;;;;;;;;;5053990;28;20495;-65
2022/05/12 13:43:01;;;;;;;6.80;1.75;;;;;;;;;;5053985;28;20546;-65
2022/05/12 13:45:31;;;;;;;10.32;1.95;;;;;;;;;;5053482;28;20017;-65
2022/05/12 13:47:59;;;;;;;10.90;1.48;;;;;;;;;;5054032;28;20020;-65
2022/05/12 13:50:36;;;;;;;5.30;1.50;;;;;;;;;;5055526;28;20036;-65
2022/05/12 13:53:02;;;;;;;6.75;1.75;;;;;;;;;;5053261;28;20039;-65
2022/05/12 13:55:33;;;;;;;8.32;1.42;;;;;;;;;;5053011;28;20052;-65
2022/05/12 13:58:02;;;;;;;12.05;1.90;;;;;;;;;;5064539;28;20385;-65
2022/05/12 14:00:49;;;;;;;7.60;1.65;;;;;;;;;;5054317;28;20391;-65
2022/05/12 14:03:21;;;;;;;8.48;1.67;;;;;;;;;;5059912;28;20496;-65
2022/05/12 14:05:48;;;;;;;10.23;2.08;;;;;;;;;;5053406;28;20048;-65
2022/05/12 14:08:17;;;;;;;7.15;1.77;;;;;;;;;;5054831;28;20036;-65
2022/05/12 14:10:48;;;;;;;12.85;2.40;;;;;;;;;;5053287;28;20029;-65
2022/05/12 14:21:30;;;;;;;11.93;1.85;;;;;;;;;;5053074;28;20044;-65
2022/05/12 14:23:56;;;;;;;8.18;1.67;;;;;;;;;;5053152;28;20024;-65
2022/05/12 14:26:23;;;;;;;3.55;1.23;;;;;;;;;;5052708;28;20013;-65
2022/05/12 14:28:49;;;;;;;24.83;2.78;;;;;;;;;;5053104;28;20021;-65
2022/05/12 14:31:15;;;;;;;9.38;1.35;;;;;;;;;;5052734;28;20081;-65
2022/05/12 14:33:41;;;;;;;10.25;2.30;;;;;;;;;;5038550;28;20096;-65
2022/05/12 14:36:08;;;;;;;10.18;2.03;;;;;;;;;;5063558;28;20079;-65
2022/05/12 14:38:34;;;;;;;4.45;1.67;;;;;;;;;;5052761;28;20043;-65
2022/05/12 14:41:00;;;;;;;4.22;1.35;;;;;;;;;;5067150;28;20431;-65
2022/05/12 14:43:26;;;;;;;6.30;1.35;;;;;;;;;;5053729;28;20050;-65
2022/05/12 14:45:53;;;;;;;6.95;1.13;;;;;;;;;;5054741;28;20028;-65
2022/05/12 14:48:20;;;;;;;7.85;1.88;;;;;;;;;;5060974;28;20078;-65
2022/05/12 14:50:47;;;;;;;5.05;1.20;;;;;;;;;;5051773;28;20033;-65
2022/05/12 14:53:14;;;;;;;11.77;2.00;;;;;;;;;;5058709;28;20017;-65
2022/05/12 14:55:41;;;;;;;6.63;1.30;;;;;;;;;;5051522;28;20119;-65
2022/05/12 14:58:10;;;;;;;5.75;1.33;;;;;;;;;;5050969;28;20041;-65
2022/05/12 15:00:36;;;;;;;5.55;1.40;;;;;;;;;;5052349;28;20130;-65
2022/05/12 15:03:02;;;;;;;10.52;1.45;;;;;;;;;;5052719;28;20033;-65
2022/05/12 15:05:29;;;;;;;9.15;1.70;;;;;;;;;;5049223;28;20116;-65
2022/05/12 15:07:55;;;;;;;10.00;1.38;;;;;;;;;;5051188;28;20036;-65
2022/05/12 15:10:21;;;;;;;7.22;1.58;;;;;;;;;;5051837;28;20495;-63
2022/05/12 15:12:47;;;;;;;9.80;1.88;;;;;;;;;;5052138;28;20036;-63
2022/05/12 15:15:14;;;;;;;12.13;2.03;;;;;;;;;;5049624;28;20052;-63
2022/05/12 15:17:45;;;;;;;9.15;1.67;;;;;;;;;;5051789;28;20033;-63